PORT of BASTIA

Valsts: France Valsts: France [FR]
Platums / garums: 42.69867° / 9.4534155° Rādīt kartē
Vietējais laiks:  [UTC +2]
UN/LOCODE: FRBIA
Kuģi pašreiz ostā: 3
Gaidāmās pienākšanas: 3

Nesenās pienākšanas un atiešanas


Kuģa nosaukums
Pienākšana (UTC)
Pienākšana (LT)
Atiešana (UTC)
Atiešana (LT)
Vessel Type: Pasažieru kuģi  CORSICA MARINA SECONDA 2014-08-22 21:28:00 2014-08-22 23:28:00 2014-08-22 22:52:00 2014-08-23 00:52:00
Vessel Type: Pasažieru kuģi  ARETHUSA 2014-08-22 20:22:00 2014-08-22 22:22:00
Vessel Type: Pasažieru kuģi  MEGA EXPRESS FIVE 2014-08-22 17:36:00 2014-08-22 19:36:00 2014-08-22 19:11:00 2014-08-22 21:11:00
Vessel Type: Pasažieru kuģi  SARDINIA REGINA 2014-08-22 16:30:00 2014-08-22 18:30:00 2014-08-22 18:04:00 2014-08-22 20:04:00
Vessel Type: Velkoņi, loču kuteri  PILOTINE ARCU 2014-08-22 17:35:00 2014-08-22 19:35:00
Vessel Type: Velkoņi, loču kuteri  PILOTINE ARCU 2014-08-22 16:26:00 2014-08-22 18:26:00 2014-08-22 17:27:00 2014-08-22 19:27:00
Vessel Type: Velkoņi, loču kuteri  PILOTINE ARCU 2014-08-22 16:26:00 2014-08-22 18:26:00 2014-08-22 16:52:00 2014-08-22 18:52:00
Vessel Type: Pasažieru kuģi  PASCAL PAOLI 2014-08-22 05:04:00 2014-08-22 07:04:00 2014-08-22 16:51:00 2014-08-22 18:51:00
Vessel Type: Velkoņi, loču kuteri  PILOTINE ARCU 2014-08-21 23:00:00 2014-08-22 01:00:00 2014-08-22 16:09:00 2014-08-22 18:09:00
Vessel Type: Velkoņi, loču kuteri  PILOTINE H 2014-08-22 13:24:00 2014-08-22 15:24:00

Gaidāmās pienākšanas


Kuģa nosaukums
Scheduled Arrival (UTC)
Paredzētā pienākšana (vietējais laiks)
Plānotā pienākšana (UTC)
Plānotais pienākšanas laiks (vietējais laiks)
Vessel Type: Pasažieru kuģi  CORSICA VICTORIA 2014-08-22 14:00:00 2014-08-22 16:00:00 2014-08-22 20:47:00 2014-08-22 22:47:00
Vessel Type: Pasažieru kuģi  MEGA EXPRESS FIVE 2014-08-22 17:55:00 2014-08-22 19:55:00 2014-08-22 22:54:00 2014-08-23 00:54:00
Vessel Type: Pasažieru kuģi  ARETHUSA 2014-08-22 21:20:00 2014-08-22 23:20:00 2014-08-22 20:30:00 2014-08-22 22:30:00

Wind Forecast


    
Laiks (UTC)
Ātrums
DirectionDirection
Temperature
2014-08-23 00:00:00 6 knots 227° 23°C
2014-08-23 03:00:00 7 knots 245° 23°C
2014-08-23 06:00:00 9 knots 281° 22°C
2014-08-23 09:00:00 9 knots 278° 23°C
2014-08-23 12:00:00 13 knots 312° 23°C
2014-08-23 15:00:00 13 knots 253° 24°C
2014-08-23 18:00:00 13 knots 239° 24°C
2014-08-23 21:00:00 16 knots 243° 23°C
2014-08-24 00:00:00 18 knots 256° 23°C
2014-08-24 03:00:00 19 knots 256° 23°C
2014-08-24 06:00:00 18 knots 278° 22°C
2014-08-24 09:00:00 16 knots 303° 23°C
2014-08-24 12:00:00 17 knots 315° 23°C
2014-08-24 15:00:00 18 knots 314° 23°C
2014-08-24 18:00:00 16 knots 307° 23°C
2014-08-24 21:00:00 14 knots 301° 22°C
2014-08-25 00:00:00 9 knots 309° 22°C